createdAt,value
2018-08-31T00:00:57.881Z,10.40
2018-08-31T00:01:57.613Z,10.37
2018-08-31T00:02:57.112Z,10.34
2018-08-31T00:03:57.800Z,10.37
2018-08-31T00:04:57.903Z,10.41
2018-08-31T00:05:57.427Z,10.42
2018-08-31T00:06:57.999Z,10.42
2018-08-31T00:07:57.941Z,10.42
2018-08-31T00:08:57.890Z,10.40
2018-08-31T00:09:57.933Z,10.34
2018-08-31T00:11:18.686Z,10.30
2018-08-31T00:12:40.671Z,10.28
2018-08-31T00:14:23.855Z,10.22
2018-08-31T00:15:45.791Z,10.20
2018-08-31T00:16:46.449Z,10.17
2018-08-31T00:17:46.099Z,10.19
2018-08-31T00:18:46.980Z,10.19
2018-08-31T00:19:46.427Z,10.17
2018-08-31T00:20:45.820Z,10.26
2018-08-31T00:21:46.618Z,10.34
2018-08-31T00:23:07.623Z,10.42
2018-08-31T00:24:08.539Z,10.44
2018-08-31T00:25:08.520Z,10.42
2018-08-31T00:26:08.249Z,10.38
2018-08-31T00:27:08.027Z,10.33
2018-08-31T00:28:08.881Z,10.26
2018-08-31T00:29:08.652Z,10.25
2018-08-31T00:30:08.416Z,10.23
2018-08-31T00:31:07.949Z,10.23
2018-08-31T00:32:08.836Z,10.17
2018-08-31T00:33:08.603Z,10.09
2018-08-31T00:34:08.217Z,10.13
2018-08-31T00:35:07.673Z,10.19
2018-08-31T00:36:08.081Z,10.20
2018-08-31T00:37:07.922Z,10.16
2018-08-31T00:38:08.744Z,10.16
2018-08-31T00:39:08.266Z,10.12
2018-08-31T00:40:07.662Z,10.13
2018-08-31T00:41:08.270Z,10.09
2018-08-31T00:42:07.910Z,10.05
2018-08-31T00:43:29.968Z,10.05
2018-08-31T00:44:51.345Z,10.16
2018-08-31T00:45:51.823Z,10.22
2018-08-31T00:47:35.200Z,10.30
2018-08-31T00:48:36.062Z,10.31
2018-08-31T00:49:35.569Z,10.23
2018-08-31T00:50:36.085Z,10.16
2018-08-31T00:51:35.638Z,10.12
2018-08-31T00:52:36.039Z,10.17
2018-08-31T00:53:35.876Z,10.23
2018-08-31T00:54:35.435Z,10.23
2018-08-31T00:55:35.776Z,10.19
2018-08-31T00:56:36.173Z,10.15
2018-08-31T00:57:35.589Z,10.16
2018-08-31T00:58:36.027Z,10.12
2018-08-31T00:59:35.807Z,10.07
2018-08-31T01:00:35.264Z,10.01
2018-08-31T01:01:35.832Z,10.01
2018-08-31T01:02:36.412Z,9.98
2018-08-31T01:03:57.613Z,10.01
2018-08-31T01:04:58.221Z,9.97
2018-08-31T01:05:57.867Z,9.94
2018-08-31T01:06:58.351Z,9.95
2018-08-31T01:07:57.935Z,9.91
2018-08-31T01:09:19.797Z,9.84
2018-08-31T01:10:20.235Z,9.84
2018-08-31T01:11:19.935Z,9.84
2018-08-31T01:12:20.698Z,9.87
2018-08-31T01:13:20.082Z,9.92
2018-08-31T01:14:20.887Z,9.94
2018-08-31T01:15:20.319Z,10.04
2018-08-31T01:16:20.624Z,10.05
2018-08-31T01:17:19.994Z,10.04
2018-08-31T01:18:20.753Z,9.99
2018-08-31T01:19:20.482Z,9.97
2018-08-31T01:20:19.967Z,9.97
2018-08-31T01:21:20.460Z,9.95
2018-08-31T01:22:19.812Z,10.02
2018-08-31T01:23:20.210Z,10.05
2018-08-31T01:24:41.606Z,10.17
2018-08-31T01:25:42.231Z,10.22
2018-08-31T01:26:41.950Z,10.22
2018-08-31T01:27:42.664Z,10.16
2018-08-31T01:28:42.054Z,10.16
2018-08-31T01:29:42.547Z,10.22
2018-08-31T01:30:42.011Z,10.25
2018-08-31T01:31:42.505Z,10.25
2018-08-31T01:32:41.884Z,10.22
2018-08-31T01:33:42.237Z,10.13
2018-08-31T01:35:04.942Z,10.05
2018-08-31T01:36:05.635Z,10.12
2018-08-31T01:37:05.167Z,10.07
2018-08-31T01:38:05.479Z,9.98
2018-08-31T01:39:04.948Z,9.95
2018-08-31T01:40:05.349Z,9.92
2018-08-31T01:41:05.743Z,9.92
2018-08-31T01:42:05.095Z,9.94
2018-08-31T01:43:05.514Z,9.91
2018-08-31T01:44:05.157Z,9.89
2018-08-31T01:45:05.813Z,9.83
2018-08-31T01:46:05.578Z,9.82
2018-08-31T01:47:04.903Z,9.80
2018-08-31T01:48:05.278Z,9.74
2018-08-31T01:49:05.881Z,9.77
2018-08-31T01:50:05.478Z,9.82
2018-08-31T01:51:06.021Z,9.76
2018-08-31T01:52:05.721Z,9.76
2018-08-31T01:53:05.196Z,9.77
2018-08-31T01:54:05.878Z,9.86
2018-08-31T01:55:05.305Z,9.92
2018-08-31T01:56:04.952Z,9.99
2018-08-31T01:57:05.297Z,9.95
2018-08-31T01:58:04.748Z,9.91
2018-08-31T01:59:05.217Z,9.83
2018-08-31T02:00:05.713Z,9.79
2018-08-31T02:01:05.404Z,9.79
2018-08-31T02:02:05.081Z,9.79
2018-08-31T02:03:05.679Z,9.74
2018-08-31T02:04:26.375Z,9.66
2018-08-31T02:05:27.005Z,9.64
2018-08-31T02:06:26.521Z,9.61
2018-08-31T02:07:48.225Z,9.56
2018-08-31T02:09:31.421Z,9.61
2018-08-31T02:10:31.918Z,9.62
2018-08-31T02:11:56.835Z,9.59
2018-08-31T02:12:56.513Z,9.61
2018-08-31T02:14:17.214Z,9.66
2018-08-31T02:15:17.546Z,9.62
2018-08-31T02:16:18.012Z,9.66
2018-08-31T02:17:17.278Z,9.72
2018-08-31T02:18:17.608Z,9.68
2018-08-31T02:19:18.150Z,9.59
2018-08-31T02:20:17.723Z,9.55
2018-08-31T02:21:18.063Z,9.51
2018-08-31T02:22:17.526Z,9.48
2018-08-31T02:23:17.523Z,9.44
2018-08-31T02:24:17.866Z,9.43
2018-08-31T02:25:17.566Z,9.41
2018-08-31T02:26:17.941Z,9.41
2018-08-31T02:27:17.416Z,9.41
2018-08-31T02:28:17.694Z,9.41
2018-08-31T02:29:18.136Z,9.40
2018-08-31T02:30:17.526Z,9.37
2018-08-31T02:31:17.927Z,9.36
2018-08-31T02:32:17.216Z,9.37
2018-08-31T02:33:17.710Z,9.34
2018-08-31T02:34:18.258Z,9.37
2018-08-31T02:35:17.788Z,9.41
2018-08-31T02:36:38.669Z,9.43
2018-08-31T02:37:38.958Z,9.46
2018-08-31T02:38:39.287Z,9.51
2018-08-31T02:39:38.882Z,9.56
2018-08-31T02:40:39.412Z,9.58
2018-08-31T02:41:38.903Z,9.54
2018-08-31T02:42:39.253Z,9.50
2018-08-31T02:43:38.692Z,9.44
2018-08-31T02:44:39.163Z,9.44
2018-08-31T02:45:39.595Z,9.44
2018-08-31T02:46:39.084Z,9.46
2018-08-31T02:47:39.608Z,9.47
2018-08-31T02:48:39.200Z,9.51
2018-08-31T02:49:39.910Z,9.55
2018-08-31T02:50:39.755Z,9.54
2018-08-31T02:51:39.250Z,9.44
2018-08-31T02:52:38.720Z,9.43
2018-08-31T02:53:39.271Z,9.40
2018-08-31T02:54:39.348Z,9.39
2018-08-31T02:55:38.876Z,9.40
2018-08-31T02:56:39.295Z,9.43
2018-08-31T02:57:39.054Z,9.46
2018-08-31T02:58:38.723Z,9.39
2018-08-31T02:59:39.270Z,9.37
2018-08-31T03:00:38.525Z,9.31
2018-08-31T03:01:38.913Z,9.28
2018-08-31T03:02:39.406Z,9.23
2018-08-31T03:03:39.311Z,9.23
2018-08-31T03:04:38.924Z,9.23
2018-08-31T03:05:39.658Z,9.23
2018-08-31T03:06:39.201Z,9.22
2018-08-31T03:07:38.587Z,9.18
2018-08-31T03:08:38.838Z,9.16
2018-08-31T03:09:39.603Z,9.14
2018-08-31T03:10:39.456Z,9.11
2018-08-31T03:11:38.926Z,9.10
2018-08-31T03:12:39.394Z,9.10
2018-08-31T03:13:38.720Z,9.08
2018-08-31T03:14:39.265Z,9.08
2018-08-31T03:16:41.884Z,9.16
2018-08-31T03:17:42.531Z,9.19
2018-08-31T03:19:03.406Z,9.19
2018-08-31T03:20:04.021Z,9.18
2018-08-31T03:21:03.628Z,9.19
2018-08-31T03:22:04.259Z,9.14
2018-08-31T03:23:03.831Z,9.16
2018-08-31T03:24:04.125Z,9.13
2018-08-31T03:25:27.128Z,9.13
2018-08-31T03:26:27.571Z,9.16
2018-08-31T03:27:28.042Z,9.22
2018-08-31T03:28:27.435Z,9.21
2018-08-31T03:29:27.896Z,9.19
2018-08-31T03:30:48.845Z,9.22
2018-08-31T03:31:49.543Z,9.22
2018-08-31T03:32:49.384Z,9.22
2018-08-31T03:33:48.786Z,9.23
2018-08-31T03:34:49.258Z,9.26
2018-08-31T03:35:49.763Z,9.28
2018-08-31T03:36:49.440Z,9.26
2018-08-31T03:37:49.285Z,9.31
2018-08-31T03:38:49.661Z,9.34
2018-08-31T03:39:49.133Z,9.36
2018-08-31T03:40:49.675Z,9.29
2018-08-31T03:41:49.259Z,9.26
2018-08-31T03:43:31.097Z,9.32
2018-08-31T03:44:52.695Z,9.31
2018-08-31T03:45:52.968Z,9.31
2018-08-31T03:46:53.504Z,9.28
2018-08-31T03:47:53.075Z,9.25
2018-08-31T03:49:14.625Z,9.21
2018-08-31T03:50:15.256Z,9.21
2018-08-31T03:51:27.776Z,9.23
2018-08-31T03:52:15.117Z,9.19
2018-08-31T03:53:15.453Z,9.19
2018-08-31T03:54:36.016Z,9.25
2018-08-31T03:55:57.526Z,9.28
2018-08-31T03:56:58.013Z,9.22
2018-08-31T03:57:58.427Z,9.21
2018-08-31T03:59:19.225Z,9.18
2018-08-31T04:00:19.630Z,9.23
2018-08-31T04:01:19.216Z,9.31
2018-08-31T04:02:20.200Z,9.41
2018-08-31T04:03:19.583Z,9.44
2018-08-31T04:04:20.166Z,9.44
2018-08-31T04:05:19.881Z,9.47
2018-08-31T04:06:19.281Z,9.47
2018-08-31T04:07:19.793Z,9.50
2018-08-31T04:08:40.451Z,9.50
2018-08-31T04:09:41.230Z,9.51
2018-08-31T04:10:40.872Z,9.50
2018-08-31T04:11:40.601Z,9.47
2018-08-31T04:12:41.350Z,9.46
2018-08-31T04:13:41.251Z,9.43
2018-08-31T04:14:40.603Z,9.39
2018-08-31T04:15:41.067Z,9.37
2018-08-31T04:17:01.699Z,9.36
2018-08-31T04:18:02.199Z,9.37
2018-08-31T04:19:02.766Z,9.37
2018-08-31T04:20:02.081Z,9.44
2018-08-31T04:21:02.847Z,9.41
2018-08-31T04:22:23.597Z,9.40
2018-08-31T04:23:24.342Z,9.40
2018-08-31T04:24:23.893Z,9.37
2018-08-31T04:25:45.417Z,9.29
2018-08-31T04:26:45.802Z,9.28
2018-08-31T04:27:46.308Z,9.29
2018-08-31T04:28:45.769Z,9.25
2018-08-31T04:29:46.247Z,9.22
2018-08-31T04:30:45.943Z,9.21
2018-08-31T04:31:45.512Z,9.25
2018-08-31T04:32:46.311Z,9.28
2018-08-31T04:34:07.342Z,9.31
2018-08-31T04:35:08.369Z,9.25
2018-08-31T04:36:29.698Z,9.19
2018-08-31T04:37:30.269Z,9.23
2018-08-31T04:38:32.995Z,9.19
2018-08-31T04:39:42.603Z,9.16
2018-08-31T04:40:30.101Z,9.10
2018-08-31T04:41:30.358Z,9.11
2018-08-31T04:42:30.131Z,9.11
2018-08-31T04:43:29.969Z,9.08
2018-08-31T04:44:30.629Z,9.04
2018-08-31T04:45:30.204Z,8.99
2018-08-31T04:46:30.148Z,8.94
2018-08-31T04:47:30.097Z,8.89
2018-08-31T04:48:29.713Z,8.85
2018-08-31T04:49:30.232Z,8.88
2018-08-31T04:50:29.717Z,8.91
2018-08-31T04:51:30.260Z,8.97
2018-08-31T04:52:29.790Z,9.02
2018-08-31T04:53:30.220Z,9.08
2018-08-31T04:54:29.771Z,9.11
2018-08-31T04:55:30.305Z,9.04
2018-08-31T04:56:29.784Z,9.02
2018-08-31T04:57:30.351Z,9.03
2018-08-31T04:58:30.063Z,9.06
2018-08-31T04:59:30.052Z,9.14
2018-08-31T05:00:30.603Z,9.16
2018-08-31T05:01:30.272Z,9.11
2018-08-31T05:02:29.696Z,9.11
2018-08-31T05:03:51.895Z,9.03
2018-08-31T05:04:52.458Z,9.03
2018-08-31T05:05:52.149Z,9.08
2018-08-31T05:06:52.787Z,9.06
2018-08-31T05:07:52.721Z,9.08
2018-08-31T05:08:52.427Z,9.11
2018-08-31T05:09:52.017Z,9.13
2018-08-31T05:10:52.511Z,9.14
2018-08-31T05:11:52.135Z,9.18
2018-08-31T05:12:53.284Z,9.23
2018-08-31T05:13:51.877Z,9.26
2018-08-31T05:14:52.495Z,9.32
2018-08-31T05:16:13.673Z,9.31
2018-08-31T05:17:14.696Z,9.31
2018-08-31T05:18:14.558Z,9.29
2018-08-31T05:19:35.485Z,9.34
2018-08-31T05:20:36.323Z,9.40
2018-08-31T05:21:57.400Z,9.48
2018-08-31T05:22:58.489Z,9.47
2018-08-31T05:24:19.689Z,9.54
2018-08-31T05:25:40.878Z,9.59
2018-08-31T05:27:03.224Z,9.68
2018-08-31T05:28:04.155Z,9.79
2018-08-31T05:29:02.980Z,9.83
2018-08-31T05:30:03.633Z,9.92
2018-08-31T05:31:03.147Z,9.97
2018-08-31T05:32:04.090Z,10.01
2018-08-31T05:33:03.683Z,10.04
2018-08-31T05:34:03.702Z,10.10
2018-08-31T05:35:03.525Z,10.15
2018-08-31T05:36:03.184Z,10.20
2018-08-31T05:37:25.746Z,10.26
2018-08-31T05:38:25.470Z,10.30
2018-08-31T05:39:26.418Z,10.31
2018-08-31T05:40:47.267Z,10.37
2018-08-31T05:42:00.213Z,10.41
2018-08-31T05:42:48.832Z,10.51
2018-08-31T05:43:49.282Z,10.61
2018-08-31T05:44:47.728Z,10.69
2018-08-31T05:45:48.205Z,10.78
2018-08-31T05:46:47.739Z,10.93
2018-08-31T05:47:47.762Z,11.05
2018-08-31T05:48:48.690Z,11.18
2018-08-31T05:49:48.626Z,11.26
2018-08-31T05:50:48.139Z,11.29
2018-08-31T05:52:09.218Z,11.33
2018-08-31T05:53:53.098Z,11.32
2018-08-31T05:55:00.052Z,11.33
2018-08-31T05:55:52.835Z,11.35
2018-08-31T05:56:53.385Z,11.33
2018-08-31T05:57:53.094Z,11.37
2018-08-31T05:59:14.616Z,11.41
2018-08-31T06:00:15.637Z,11.41
2018-08-31T06:01:15.555Z,11.41
2018-08-31T06:02:15.659Z,11.40
2018-08-31T06:03:15.159Z,11.40
2018-08-31T06:04:14.846Z,11.41
2018-08-31T06:05:15.436Z,11.44
2018-08-31T06:06:15.649Z,11.45
2018-08-31T06:07:15.447Z,11.51
2018-08-31T06:08:15.203Z,11.55
2018-08-31T06:09:15.129Z,11.63
2018-08-31T06:10:14.662Z,11.69
2018-08-31T06:11:15.325Z,11.77
2018-08-31T06:12:15.002Z,11.83
2018-08-31T06:13:16.413Z,11.87
2018-08-31T06:14:15.024Z,11.91
2018-08-31T06:15:14.740Z,11.99
2018-08-31T06:16:15.535Z,12.07
2018-08-31T06:17:38.629Z,12.18
2018-08-31T06:18:39.312Z,12.22
2018-08-31T06:19:38.941Z,12.28
2018-08-31T06:20:38.923Z,12.35
2018-08-31T06:21:39.184Z,12.37
2018-08-31T06:22:38.756Z,12.43
2018-08-31T06:23:39.258Z,12.47
2018-08-31T06:24:39.197Z,12.49
2018-08-31T06:25:38.958Z,12.50
2018-08-31T06:26:42.203Z,12.50
2018-08-31T06:28:00.369Z,12.54
2018-08-31T06:29:01.443Z,12.57
2018-08-31T06:30:01.612Z,12.61
2018-08-31T06:31:01.395Z,12.61
2018-08-31T06:32:01.070Z,12.61
2018-08-31T06:33:00.811Z,12.61
2018-08-31T06:34:00.644Z,12.76
2018-08-31T06:35:10.586Z,12.93
2018-08-31T06:36:01.442Z,13.20
2018-08-31T06:37:01.147Z,13.56
2018-08-31T06:38:00.917Z,13.96
2018-08-31T06:39:00.627Z,14.23
2018-08-31T06:40:00.556Z,14.45
2018-08-31T06:41:01.460Z,14.62
2018-08-31T06:42:01.629Z,14.62
2018-08-31T06:43:01.458Z,14.65
2018-08-31T06:44:01.046Z,14.66
2018-08-31T06:45:01.006Z,14.84
2018-08-31T06:46:22.366Z,15.03
2018-08-31T06:47:22.969Z,15.11
2018-08-31T06:48:22.752Z,15.19
2018-08-31T06:49:22.510Z,15.47
2018-08-31T06:50:23.563Z,15.77
2018-08-31T06:51:24.169Z,15.98
2018-08-31T06:52:22.921Z,16.12
2018-08-31T06:53:22.692Z,16.29
2018-08-31T06:54:22.485Z,16.46
2018-08-31T06:55:44.793Z,16.69
2018-08-31T06:56:45.354Z,16.78
2018-08-31T06:58:06.557Z,16.81
2018-08-31T06:59:07.570Z,16.89
2018-08-31T07:00:07.321Z,16.87
2018-08-31T07:01:07.389Z,16.83
2018-08-31T07:02:51.643Z,16.99
2018-08-31T07:03:53.894Z,17.12
2018-08-31T07:04:56.000Z,17.41
2018-08-31T07:05:57.635Z,17.80
2018-08-31T07:06:51.615Z,17.94
2018-08-31T07:07:52.431Z,18.28
2018-08-31T07:08:52.294Z,18.34
2018-08-31T07:09:58.548Z,18.56
2018-08-31T07:11:59.023Z,18.86
2018-08-31T07:12:59.962Z,19.00
2018-08-31T07:13:59.748Z,18.99
2018-08-31T07:15:21.054Z,19.02
2018-08-31T07:16:22.130Z,19.04
2018-08-31T07:17:21.689Z,19.00
2018-08-31T07:18:21.559Z,18.95
2018-08-31T07:19:21.655Z,18.81
2018-08-31T07:20:21.358Z,18.84
2018-08-31T07:22:06.052Z,19.11
2018-08-31T07:23:06.913Z,19.21
2018-08-31T07:24:06.688Z,19.24
2018-08-31T07:25:06.307Z,19.33
2018-08-31T07:26:06.266Z,19.15
2018-08-31T07:27:05.881Z,18.89
2018-08-31T07:28:06.638Z,18.83
2018-08-31T07:29:06.373Z,18.86
2018-08-31T07:30:06.686Z,18.96
2018-08-31T07:31:06.429Z,19.14
2018-08-31T07:32:06.262Z,19.15
2018-08-31T07:33:06.344Z,19.22
2018-08-31T07:34:07.228Z,19.24
2018-08-31T07:35:08.907Z,19.27
2018-08-31T07:36:07.409Z,19.26
2018-08-31T07:37:52.332Z,19.19
2018-08-31T07:38:52.826Z,19.16
2018-08-31T07:39:53.355Z,19.15
2018-08-31T07:40:52.060Z,19.08
2018-08-31T07:41:51.609Z,19.11
2018-08-31T07:42:51.444Z,19.04
2018-08-31T07:44:14.041Z,19.14
2018-08-31T07:45:57.254Z,18.88
2018-08-31T07:46:58.196Z,18.80
2018-08-31T07:47:57.853Z,18.77
2018-08-31T07:48:57.659Z,18.75
2018-08-31T07:49:57.360Z,18.70
2018-08-31T07:50:57.283Z,18.88
2018-08-31T07:51:58.263Z,18.81
2018-08-31T07:52:57.041Z,18.70
2018-08-31T07:53:57.900Z,18.63
2018-08-31T07:54:57.940Z,18.58
2018-08-31T07:55:58.022Z,18.56
2018-08-31T07:56:58.112Z,18.50
2018-08-31T07:57:57.670Z,18.47
2018-08-31T07:58:57.537Z,18.41
2018-08-31T07:59:57.211Z,18.43
2018-08-31T08:00:56.996Z,18.44
2018-08-31T08:01:57.853Z,18.45
2018-08-31T08:02:57.352Z,18.44
2018-08-31T08:03:57.003Z,18.44
2018-08-31T08:04:57.973Z,18.40
2018-08-31T08:05:57.981Z,18.38
2018-08-31T08:06:58.041Z,18.37
2018-08-31T08:07:57.789Z,18.37
2018-08-31T08:08:57.454Z,18.31
2018-08-31T08:09:57.301Z,18.28
2018-08-31T08:10:57.363Z,18.28
2018-08-31T08:11:57.444Z,18.22
2018-08-31T08:13:42.187Z,18.08
2018-08-31T08:14:43.085Z,18.03
2018-08-31T08:16:05.085Z,17.95
2018-08-31T08:17:04.948Z,17.94
2018-08-31T08:18:04.693Z,17.97
2018-08-31T08:19:05.975Z,18.00
2018-08-31T08:20:05.687Z,18.01
2018-08-31T08:21:05.708Z,18.00
2018-08-31T08:22:05.928Z,17.97
2018-08-31T08:23:48.784Z,17.94
2018-08-31T08:24:49.634Z,17.89
2018-08-31T08:25:49.413Z,17.89
2018-08-31T08:26:49.190Z,17.89
2018-08-31T08:27:49.191Z,17.89
2018-08-31T08:28:48.872Z,17.92
2018-08-31T08:29:48.623Z,17.94
2018-08-31T08:30:49.330Z,17.86
2018-08-31T08:31:49.088Z,17.89
2018-08-31T08:33:32.053Z,17.97
2018-08-31T08:34:54.777Z,18.10
2018-08-31T08:35:55.637Z,18.19
2018-08-31T08:36:55.930Z,18.31
2018-08-31T08:37:55.757Z,18.44
2018-08-31T08:38:55.762Z,18.50
2018-08-31T08:39:55.791Z,18.55
2018-08-31T08:40:55.917Z,18.53
2018-08-31T08:42:17.184Z,18.55
2018-08-31T08:43:17.042Z,18.56
2018-08-31T08:44:18.092Z,18.49
2018-08-31T08:45:17.694Z,18.43
2018-08-31T08:46:17.576Z,18.40
2018-08-31T08:47:17.400Z,18.37
2018-08-31T08:48:17.151Z,18.33
2018-08-31T08:49:17.390Z,18.22
2018-08-31T08:50:17.172Z,18.16
2018-08-31T08:51:17.748Z,18.13
2018-08-31T08:52:39.148Z,18.08
2018-08-31T08:53:40.209Z,18.04
2018-08-31T08:54:39.772Z,17.92
2018-08-31T08:55:39.555Z,17.79
2018-08-31T08:56:39.593Z,17.60
2018-08-31T08:57:39.261Z,17.56
2018-08-31T08:58:39.029Z,17.49
2018-08-31T08:59:39.759Z,17.46
2018-08-31T09:00:39.689Z,17.42
2018-08-31T09:01:39.386Z,17.33
2018-08-31T09:02:39.515Z,17.16
2018-08-31T09:04:00.840Z,17.06
2018-08-31T09:05:01.631Z,17.05
2018-08-31T09:06:01.504Z,16.99
2018-08-31T09:07:01.146Z,16.91
2018-08-31T09:08:01.765Z,16.79
2018-08-31T09:09:01.533Z,16.78
2018-08-31T09:10:01.658Z,16.78
2018-08-31T09:11:01.284Z,16.71
2018-08-31T09:12:01.979Z,16.66
2018-08-31T09:13:01.916Z,16.68
2018-08-31T09:14:01.725Z,16.68
2018-08-31T09:15:01.834Z,16.69
2018-08-31T09:16:01.483Z,16.60
2018-08-31T09:17:01.212Z,16.60
2018-08-31T09:18:02.016Z,16.64
2018-08-31T09:19:01.911Z,16.71
2018-08-31T09:20:01.669Z,16.74
2018-08-31T09:21:01.813Z,16.81
2018-08-31T09:22:01.395Z,16.86
2018-08-31T09:23:01.177Z,16.91
2018-08-31T09:24:01.127Z,16.93
2018-08-31T09:25:01.035Z,16.94
2018-08-31T09:26:01.840Z,16.97
2018-08-31T09:27:01.536Z,17.01
2018-08-31T09:28:01.341Z,17.11
2018-08-31T09:29:00.984Z,17.19
2018-08-31T09:30:23.125Z,17.31
2018-08-31T09:31:24.233Z,17.41
2018-08-31T09:32:24.184Z,17.49
2018-08-31T09:33:23.988Z,17.64
2018-08-31T09:34:46.729Z,17.80
2018-08-31T09:35:45.539Z,17.87
2018-08-31T09:36:45.457Z,17.92
2018-08-31T09:37:46.488Z,17.94
2018-08-31T09:38:45.696Z,18.03
2018-08-31T09:40:07.130Z,18.25
2018-08-31T09:41:07.908Z,18.43
2018-08-31T09:42:29.036Z,18.65
2018-08-31T09:43:51.373Z,18.93
2018-08-31T09:44:51.415Z,19.04
2018-08-31T09:45:51.343Z,19.16
2018-08-31T09:46:52.098Z,19.36
2018-08-31T09:47:51.997Z,19.54
2018-08-31T09:48:51.840Z,19.66
2018-08-31T09:49:51.614Z,19.69
2018-08-31T09:50:51.291Z,19.69
2018-08-31T09:52:13.696Z,19.88
2018-08-31T09:53:14.426Z,19.96
2018-08-31T09:54:14.428Z,20.03
2018-08-31T09:55:14.211Z,20.07
2018-08-31T09:56:14.267Z,20.16
2018-08-31T09:57:14.172Z,20.26
2018-08-31T09:58:14.206Z,20.39
2018-08-31T09:59:14.111Z,20.43
2018-08-31T10:00:14.301Z,20.51
2018-08-31T10:01:14.388Z,20.60
2018-08-31T10:02:36.158Z,20.66
2018-08-31T10:03:37.269Z,20.67
2018-08-31T10:04:37.353Z,20.78
2018-08-31T10:05:36.442Z,20.80
2018-08-31T10:06:36.340Z,20.90
2018-08-31T10:07:37.387Z,21.03
2018-08-31T10:08:36.362Z,21.18
2018-08-31T10:09:36.260Z,21.21
2018-08-31T10:10:59.899Z,21.27
2018-08-31T10:12:01.045Z,21.30
2018-08-31T10:12:59.789Z,21.37
2018-08-31T10:14:00.771Z,21.64
2018-08-31T10:15:22.754Z,21.80
2018-08-31T10:16:22.914Z,21.93
2018-08-31T10:17:22.832Z,22.02
2018-08-31T10:18:23.201Z,22.10
2018-08-31T10:19:23.289Z,22.02
2018-08-31T10:20:23.266Z,22.06
2018-08-31T10:21:23.532Z,22.00
2018-08-31T10:22:45.028Z,21.99
2018-08-31T10:23:45.861Z,21.99
2018-08-31T10:24:46.655Z,21.95
2018-08-31T10:25:45.824Z,22.02
2018-08-31T10:26:45.648Z,22.11
2018-08-31T10:28:09.016Z,22.07
2018-08-31T10:29:09.746Z,22.04
2018-08-31T10:30:09.568Z,22.08
2018-08-31T10:31:31.153Z,22.04
2018-08-31T10:32:53.900Z,22.22
2018-08-31T10:33:53.715Z,22.33
2018-08-31T10:34:54.867Z,22.45
2018-08-31T10:35:53.665Z,22.55
2018-08-31T10:36:54.515Z,22.66
2018-08-31T10:37:55.042Z,22.68
2018-08-31T10:38:53.872Z,22.63
2018-08-31T10:39:53.748Z,22.70
2018-08-31T10:40:53.711Z,22.78
2018-08-31T10:41:53.589Z,22.76
2018-08-31T10:42:54.586Z,22.87
2018-08-31T10:43:54.547Z,22.96
2018-08-31T10:44:54.231Z,23.00
2018-08-31T10:46:16.038Z,22.98
2018-08-31T10:47:16.125Z,23.02
2018-08-31T10:48:16.663Z,23.24
2018-08-31T10:49:16.533Z,23.48
2018-08-31T10:50:16.748Z,23.71
2018-08-31T10:51:16.573Z,23.86
2018-08-31T10:52:16.593Z,23.91
2018-08-31T10:53:16.703Z,23.81
2018-08-31T10:54:16.428Z,23.71
2018-08-31T10:55:16.266Z,23.66
2018-08-31T10:56:16.417Z,23.56
2018-08-31T10:57:16.114Z,23.58
2018-08-31T10:58:16.806Z,23.50
2018-08-31T10:59:38.247Z,23.73
2018-08-31T11:00:39.185Z,23.98
2018-08-31T11:01:39.151Z,24.35
2018-08-31T11:02:39.002Z,24.69
2018-08-31T11:03:38.790Z,24.85
2018-08-31T11:04:39.063Z,24.96
2018-08-31T11:05:38.574Z,25.03
2018-08-31T11:06:38.869Z,25.10
2018-08-31T11:07:38.771Z,25.28
2018-08-31T11:08:39.047Z,25.60
2018-08-31T11:09:38.837Z,26.00
2018-08-31T11:10:38.692Z,26.33
2018-08-31T11:11:38.468Z,26.56
2018-08-31T11:12:38.419Z,26.65
2018-08-31T11:13:39.312Z,26.48
2018-08-31T11:14:39.256Z,26.56
2018-08-31T11:15:39.113Z,26.80
2018-08-31T11:16:39.194Z,26.92
2018-08-31T11:17:39.082Z,26.93
2018-08-31T11:18:39.707Z,27.07
2018-08-31T11:19:39.417Z,27.25
2018-08-31T11:20:38.390Z,27.35
2018-08-31T11:21:39.057Z,27.25
2018-08-31T11:22:38.824Z,26.65
2018-08-31T11:23:38.755Z,26.28
2018-08-31T11:25:00.511Z,26.09
2018-08-31T11:26:22.932Z,26.37
2018-08-31T11:27:22.982Z,26.70
2018-08-31T11:28:23.037Z,26.70
2018-08-31T11:29:22.935Z,26.44
2018-08-31T11:30:22.619Z,26.21
2018-08-31T11:31:22.795Z,25.93
2018-08-31T11:32:46.622Z,25.40
2018-08-31T11:33:46.576Z,24.95
2018-08-31T11:35:08.217Z,24.54
2018-08-31T11:36:09.084Z,24.39
2018-08-31T11:37:08.936Z,24.24
2018-08-31T11:38:08.647Z,24.08
2018-08-31T11:39:08.446Z,23.96
2018-08-31T11:40:08.944Z,23.74
2018-08-31T11:41:08.745Z,23.48
2018-08-31T11:42:08.899Z,23.12
2018-08-31T11:43:31.591Z,22.73
2018-08-31T11:44:32.485Z,22.51
2018-08-31T11:45:31.309Z,22.35
2018-08-31T11:46:55.236Z,21.93
2018-08-31T11:47:55.378Z,21.54
2018-08-31T11:48:55.890Z,21.30
2018-08-31T11:49:55.300Z,21.15
2018-08-31T11:50:55.022Z,21.09
2018-08-31T11:51:54.979Z,21.07
2018-08-31T11:52:54.556Z,21.11
2018-08-31T11:53:55.309Z,21.21
2018-08-31T11:54:55.134Z,21.25
2018-08-31T11:55:55.100Z,21.22
2018-08-31T11:56:55.734Z,21.20
2018-08-31T11:57:55.517Z,21.22
2018-08-31T11:58:55.447Z,21.27
2018-08-31T11:59:55.552Z,21.37
2018-08-31T12:00:56.299Z,21.43
2018-08-31T12:01:55.305Z,21.51
2018-08-31T12:02:55.293Z,21.43
2018-08-31T12:03:55.345Z,21.33
2018-08-31T12:04:55.141Z,21.35
2018-08-31T12:05:55.168Z,21.33
2018-08-31T12:06:54.811Z,21.37
2018-08-31T12:07:54.754Z,21.42
2018-08-31T12:09:17.028Z,21.37
2018-08-31T12:10:17.069Z,21.39
2018-08-31T12:11:18.230Z,21.42
2018-08-31T12:12:17.394Z,21.54
2018-08-31T12:13:17.635Z,21.70
2018-08-31T12:14:17.715Z,21.83
2018-08-31T12:15:17.598Z,21.95
2018-08-31T12:16:17.448Z,22.04
2018-08-31T12:17:17.356Z,22.07
2018-08-31T12:18:17.533Z,22.08
2018-08-31T12:19:17.571Z,22.11
2018-08-31T12:20:17.665Z,22.20
2018-08-31T12:21:17.314Z,22.28
2018-08-31T12:22:17.219Z,22.38
2018-08-31T12:23:17.127Z,22.39
2018-08-31T12:24:17.580Z,22.38
2018-08-31T12:25:17.663Z,22.39
2018-08-31T12:26:17.616Z,22.44
2018-08-31T12:27:18.947Z,22.53
2018-08-31T12:28:39.381Z,22.55
2018-08-31T12:29:40.911Z,22.66
2018-08-31T12:30:39.747Z,22.68
2018-08-31T12:31:39.745Z,22.60
2018-08-31T12:32:39.425Z,22.50
2018-08-31T12:33:40.227Z,22.26
2018-08-31T12:34:40.960Z,22.20
2018-08-31T12:35:39.901Z,22.26
2018-08-31T12:36:40.398Z,22.29
2018-08-31T12:37:40.901Z,22.28
2018-08-31T12:38:39.609Z,22.33
2018-08-31T12:39:41.133Z,22.45
2018-08-31T12:40:39.911Z,22.50
2018-08-31T12:41:39.884Z,22.55
2018-08-31T12:42:39.448Z,22.53
2018-08-31T12:44:02.503Z,22.47
2018-08-31T12:45:02.932Z,22.53
2018-08-31T12:46:01.903Z,22.59
2018-08-31T12:47:02.851Z,22.65
2018-08-31T12:48:01.821Z,22.70
2018-08-31T12:49:02.984Z,22.62
2018-08-31T12:50:03.041Z,22.57
2018-08-31T12:51:03.075Z,22.47
2018-08-31T12:52:24.790Z,22.50
2018-08-31T12:53:25.882Z,22.54
2018-08-31T12:54:24.728Z,22.55
2018-08-31T12:55:24.951Z,22.62
2018-08-31T12:56:25.684Z,22.57
2018-08-31T12:57:25.172Z,22.41
2018-08-31T12:58:24.037Z,22.39
2018-08-31T12:59:25.407Z,22.39
2018-08-31T13:00:48.589Z,22.45
2018-08-31T13:01:47.594Z,22.45
2018-08-31T13:02:48.876Z,22.47
2018-08-31T13:03:47.759Z,22.63
2018-08-31T13:04:47.553Z,22.87
2018-08-31T13:05:47.421Z,22.94
2018-08-31T13:06:47.561Z,22.94
2018-08-31T13:07:47.807Z,22.96
2018-08-31T13:08:48.102Z,23.05
2018-08-31T13:09:47.217Z,23.15
2018-08-31T13:10:47.714Z,23.18
2018-08-31T13:11:48.112Z,23.21
2018-08-31T13:12:47.203Z,23.24
2018-08-31T13:13:47.332Z,23.23
2018-08-31T13:15:10.060Z,23.37
2018-08-31T13:16:08.870Z,23.54
2018-08-31T13:17:53.645Z,23.96
2018-08-31T13:18:54.155Z,24.20
2018-08-31T13:19:54.482Z,24.29
2018-08-31T13:20:52.561Z,24.33
2018-08-31T13:21:52.740Z,24.36
2018-08-31T13:22:52.747Z,24.40
2018-08-31T13:23:53.128Z,24.51
2018-08-31T13:24:53.161Z,24.58
2018-08-31T13:25:53.175Z,24.74
2018-08-31T13:26:53.323Z,24.76
2018-08-31T13:27:53.250Z,24.73
2018-08-31T13:28:53.225Z,24.74
2018-08-31T13:29:53.414Z,24.60
2018-08-31T13:30:52.459Z,24.53
2018-08-31T13:31:52.569Z,24.53
2018-08-31T13:32:52.652Z,24.40
2018-08-31T13:33:52.848Z,24.40
2018-08-31T13:34:52.781Z,24.39
2018-08-31T13:35:52.607Z,24.50
2018-08-31T13:36:52.850Z,24.55
2018-08-31T13:37:52.582Z,24.47
2018-08-31T13:39:36.164Z,24.35
2018-08-31T13:40:36.139Z,24.36
2018-08-31T13:41:36.885Z,24.32
2018-08-31T13:42:37.565Z,24.36